createdAt,value
2018-08-20T00:02:00.632Z,100126.89
2018-08-20T00:04:31.536Z,100128.63
2018-08-20T00:07:00.485Z,100132.98
2018-08-20T00:09:46.682Z,100136.75
2018-08-20T00:12:20.423Z,100147.78
2018-08-20T00:14:49.348Z,100138.45
2018-08-20T00:17:18.273Z,100138.47
2018-08-20T00:19:51.944Z,100139.63
2018-08-20T00:22:20.860Z,100149.28
2018-08-20T00:25:01.473Z,100146.80
2018-08-20T00:27:31.739Z,100145.89
2018-08-20T00:30:00.728Z,100141.81
2018-08-20T00:32:29.683Z,100144.78
2018-08-20T00:34:58.654Z,100139.33
2018-08-20T00:37:27.638Z,100132.16
2018-08-20T00:39:56.611Z,100132.07
2018-08-20T00:42:25.565Z,100133.77
2018-08-20T00:44:54.540Z,100142.72
2018-08-20T00:47:23.472Z,100146.05
2018-08-20T00:49:52.589Z,100136.64
2018-08-20T00:52:22.208Z,100131.41
2018-08-20T00:54:51.785Z,100125.42
2018-08-20T00:57:20.777Z,100132.56
2018-08-20T00:59:49.761Z,100127.12
2018-08-20T01:02:22.988Z,100132.77
2018-08-20T01:04:51.975Z,100137.88
2018-08-20T01:07:20.904Z,100131.98
2018-08-20T01:09:49.849Z,100131.77
2018-08-20T01:12:18.832Z,100131.56
2018-08-20T01:14:47.776Z,100131.69
2018-08-20T01:17:16.768Z,100133.25
2018-08-20T01:19:45.748Z,100132.83
2018-08-20T01:22:14.688Z,100134.61
2018-08-20T01:24:43.712Z,100131.89
2018-08-20T01:27:16.869Z,100137.91
2018-08-20T01:29:45.836Z,100140.08
2018-08-20T01:32:14.815Z,100144.39
2018-08-20T01:34:43.790Z,100146.89
2018-08-20T01:37:14.227Z,100145.65
2018-08-20T01:39:43.166Z,100138.97
2018-08-20T01:42:12.596Z,100140.66
2018-08-20T01:44:41.546Z,100138.47
2018-08-20T01:47:10.523Z,100139.81
2018-08-20T01:49:39.496Z,100145.16
2018-08-20T01:52:08.477Z,100141.86
2018-08-20T01:54:37.778Z,100140.94
2018-08-20T01:57:07.489Z,100145.95
2018-08-20T01:59:37.191Z,100153.52
2018-08-20T02:02:06.666Z,100154.17
2018-08-20T02:04:36.216Z,100149.40
2018-08-20T02:07:05.152Z,100160.88
2018-08-20T02:09:34.249Z,100154.27
2018-08-20T02:12:03.193Z,100155.71
2018-08-20T02:14:32.154Z,100148.92
2018-08-20T02:17:01.069Z,100148.92
2018-08-20T02:19:30.017Z,100148.27
2018-08-20T02:21:58.962Z,100142.94
2018-08-20T02:24:28.767Z,100137.52
2018-08-20T02:26:57.677Z,100138.87
2018-08-20T02:29:26.603Z,100137.73
2018-08-20T02:31:55.546Z,100138.84
2018-08-20T02:34:24.490Z,100143.02
2018-08-20T02:36:53.424Z,100139.70
2018-08-20T02:39:22.356Z,100144.78
2018-08-20T02:41:51.314Z,100144.67
2018-08-20T02:44:20.302Z,100142.64
2018-08-20T02:46:50.943Z,100151.00
2018-08-20T02:49:20.135Z,100150.89
2018-08-20T02:51:49.855Z,100147.93
2018-08-20T02:54:18.823Z,100144.75
2018-08-20T02:56:47.823Z,100146.19
2018-08-20T02:59:16.756Z,100146.61
2018-08-20T03:01:45.712Z,100144.67
2018-08-20T03:04:14.832Z,100146.82
2018-08-20T03:06:43.780Z,100149.73
2018-08-20T03:09:15.777Z,100152.67
2018-08-20T03:11:44.714Z,100151.98
2018-08-20T03:14:13.702Z,100150.95
2018-08-20T03:16:42.670Z,100150.62
2018-08-20T03:19:11.578Z,100148.09
2018-08-20T03:21:40.790Z,100151.38
2018-08-20T03:24:09.705Z,100156.70
2018-08-20T03:26:38.627Z,100158.95
2018-08-20T03:29:07.567Z,100157.94
2018-08-20T03:31:42.129Z,100161.64
2018-08-20T03:34:11.083Z,100155.42
2018-08-20T03:36:40.021Z,100155.53
2018-08-20T03:39:09.044Z,100153.36
2018-08-20T03:41:38.378Z,100158.41
2018-08-20T03:44:07.299Z,100161.90
2018-08-20T03:46:36.208Z,100160.69
2018-08-20T03:49:05.378Z,100165.87
2018-08-20T03:51:35.408Z,100170.19
2018-08-20T03:54:04.340Z,100173.81
2018-08-20T03:56:33.258Z,100171.00
2018-08-20T03:59:02.157Z,100174.80
2018-08-20T04:01:35.821Z,100175.05
2018-08-20T04:04:04.848Z,100172.97
2018-08-20T04:06:33.820Z,100172.34
2018-08-20T04:09:02.831Z,100171.77
2018-08-20T04:11:32.982Z,100175.27
2018-08-20T04:14:04.592Z,100178.88
2018-08-20T04:16:33.580Z,100176.14
2018-08-20T04:19:06.175Z,100176.77
2018-08-20T04:21:36.876Z,100181.98
2018-08-20T04:24:06.128Z,100176.14
2018-08-20T04:26:35.031Z,100175.71
2018-08-20T04:29:03.945Z,100171.55
2018-08-20T04:31:32.927Z,100174.41
2018-08-20T04:34:01.862Z,100171.28
2018-08-20T04:36:31.069Z,100177.24
2018-08-20T04:39:00.014Z,100179.28
2018-08-20T04:41:30.208Z,100183.47
2018-08-20T04:43:59.257Z,100173.61
2018-08-20T04:46:28.194Z,100179.51
2018-08-20T04:48:57.191Z,100174.55
2018-08-20T04:51:27.598Z,100186.70
2018-08-20T04:53:56.360Z,100173.16
2018-08-20T04:56:25.980Z,100174.98
2018-08-20T04:58:55.206Z,100181.02
2018-08-20T05:01:25.569Z,100186.20
2018-08-20T05:03:54.789Z,100179.56
2018-08-20T05:06:23.700Z,100183.42
2018-08-20T05:08:52.643Z,100183.70
2018-08-20T05:11:23.196Z,100183.37
2018-08-20T05:13:52.162Z,100193.92
2018-08-20T05:16:21.121Z,100183.29
2018-08-20T05:18:50.175Z,100181.59
2018-08-20T05:21:19.106Z,100183.79
2018-08-20T05:23:48.025Z,100180.94
2018-08-20T05:26:19.147Z,100183.02
2018-08-20T05:28:48.086Z,100184.40
2018-08-20T05:31:17.545Z,100185.41
2018-08-20T05:33:46.684Z,100186.09
2018-08-20T05:36:15.604Z,100190.64
2018-08-20T05:38:44.557Z,100189.84
2018-08-20T05:41:16.960Z,100197.98
2018-08-20T05:43:45.968Z,100201.41
2018-08-20T05:46:15.192Z,100199.61
2018-08-20T05:48:44.124Z,100195.97
2018-08-20T05:51:13.500Z,100200.92
2018-08-20T05:53:42.433Z,100201.62
2018-08-20T05:56:11.357Z,100205.98
2018-08-20T05:58:40.308Z,100212.24
2018-08-20T06:01:09.237Z,100214.42
2018-08-20T06:03:38.194Z,100214.70
2018-08-20T06:06:07.264Z,100219.65
2018-08-20T06:08:36.233Z,100210.92
2018-08-20T06:11:05.161Z,100207.80
2018-08-20T06:13:34.124Z,100217.27
2018-08-20T06:16:03.131Z,100206.72
2018-08-20T06:18:32.078Z,100216.52
2018-08-20T06:21:02.068Z,100216.74
2018-08-20T06:23:31.119Z,100217.14
2018-08-20T06:26:00.089Z,100221.14
2018-08-20T06:28:29.030Z,100217.94
2018-08-20T06:30:59.573Z,100216.73
2018-08-20T06:33:28.559Z,100220.56
2018-08-20T06:35:57.477Z,100220.23
2018-08-20T06:38:26.428Z,100218.69
2018-08-20T06:40:55.482Z,100223.87
2018-08-20T06:43:24.395Z,100228.52
2018-08-20T06:45:53.393Z,100232.44
2018-08-20T06:48:22.357Z,100233.14
2018-08-20T06:50:52.084Z,100230.61
2018-08-20T06:53:21.036Z,100235.26
2018-08-20T06:55:49.965Z,100234.31
2018-08-20T06:58:18.937Z,100242.33
2018-08-20T07:00:47.994Z,100245.36
2018-08-20T07:03:17.145Z,100241.27
2018-08-20T07:05:46.265Z,100242.81
2018-08-20T07:08:15.356Z,100238.00
2018-08-20T07:10:46.954Z,100246.75
2018-08-20T07:13:22.912Z,100250.43
2018-08-20T07:15:51.837Z,100239.66
2018-08-20T07:18:20.864Z,100244.70
2018-08-20T07:20:49.840Z,100249.11
2018-08-20T07:23:19.594Z,100254.84
2018-08-20T07:25:49.274Z,100251.97
2018-08-20T07:28:18.251Z,100247.53
2018-08-20T07:30:47.337Z,100251.66
2018-08-20T07:33:16.372Z,100249.58
2018-08-20T07:35:45.570Z,100256.06
2018-08-20T07:38:14.551Z,100253.50
2018-08-20T07:40:43.696Z,100263.75
2018-08-20T07:43:12.646Z,100253.84
2018-08-20T07:45:41.617Z,100258.06
2018-08-20T07:48:10.807Z,100264.61
2018-08-20T07:50:39.761Z,100256.52
2018-08-20T07:53:08.769Z,100260.19
2018-08-20T07:55:37.759Z,100255.94
2018-08-20T07:58:07.733Z,100258.94
2018-08-20T08:00:37.432Z,100262.14
2018-08-20T08:03:07.141Z,100262.38
2018-08-20T08:05:37.480Z,100263.98
2018-08-20T08:08:06.770Z,100258.55
2018-08-20T08:10:37.094Z,100264.92
2018-08-20T08:13:06.173Z,100255.53
2018-08-20T08:15:35.124Z,100266.56
2018-08-20T08:18:04.073Z,100264.55
2018-08-20T08:20:33.212Z,100261.52
2018-08-20T08:23:02.152Z,100264.08
2018-08-20T08:25:31.101Z,100259.81
2018-08-20T08:28:00.029Z,100263.67
2018-08-20T08:30:33.344Z,100253.98
2018-08-20T08:33:02.316Z,100253.72
2018-08-20T08:35:31.302Z,100251.56
2018-08-20T08:38:00.232Z,100255.60
2018-08-20T08:40:29.186Z,100251.83
2018-08-20T08:42:58.831Z,100240.03
2018-08-20T08:45:28.438Z,100255.08
2018-08-20T08:47:57.373Z,100252.45
2018-08-20T08:50:26.309Z,100250.98
2018-08-20T08:52:55.412Z,100243.86
2018-08-20T08:55:24.344Z,100241.03
2018-08-20T08:57:53.331Z,100233.48
2018-08-20T09:00:22.268Z,100232.91
2018-08-20T09:02:51.207Z,100228.63
2018-08-20T09:05:21.205Z,100217.16
2018-08-20T09:07:51.027Z,100227.88
2018-08-20T09:10:19.976Z,100216.61
2018-08-20T09:12:48.969Z,100210.80
2018-08-20T09:15:18.360Z,100219.92
2018-08-20T09:17:48.130Z,100221.08
2018-08-20T09:20:18.349Z,100217.38
2018-08-20T09:22:47.285Z,100220.07
2018-08-20T09:25:16.232Z,100214.38
2018-08-20T09:27:45.790Z,100215.28
2018-08-20T09:30:24.248Z,100218.70
2018-08-20T09:32:53.196Z,100200.80
2018-08-20T09:35:22.192Z,100210.96
2018-08-20T09:37:51.151Z,100208.47
2018-08-20T09:40:20.098Z,100216.56
2018-08-20T09:42:49.089Z,100215.08
2018-08-20T09:45:18.087Z,100212.98
2018-08-20T09:47:48.259Z,100213.77
2018-08-20T09:50:17.696Z,100222.16
2018-08-20T09:52:47.563Z,100216.97
2018-08-20T09:55:17.375Z,100213.73
2018-08-20T09:57:46.303Z,100210.47
2018-08-20T10:00:21.882Z,100204.84
2018-08-20T10:02:51.616Z,100198.04
2018-08-20T10:05:20.768Z,100207.42
2018-08-20T10:07:50.163Z,100201.58
2018-08-20T10:10:19.126Z,100205.98
2018-08-20T10:12:48.091Z,100201.44
2018-08-20T10:15:17.079Z,100200.38
2018-08-20T10:17:46.024Z,100195.69
2018-08-20T10:20:15.909Z,100198.81
2018-08-20T10:22:44.832Z,100205.18
2018-08-20T10:25:13.792Z,100197.55
2018-08-20T10:27:43.005Z,100192.36
2018-08-20T10:30:13.021Z,100199.13
2018-08-20T10:32:42.628Z,100187.77
2018-08-20T10:35:11.548Z,100198.31
2018-08-20T10:37:40.546Z,100193.00
2018-08-20T10:40:09.664Z,100199.06
2018-08-20T10:42:39.266Z,100210.03
2018-08-20T10:45:16.357Z,100197.23
2018-08-20T10:47:46.677Z,100196.55
2018-08-20T10:50:17.120Z,100192.91
2018-08-20T10:52:47.729Z,100194.23
2018-08-20T10:55:17.021Z,100191.28
2018-08-20T10:57:46.252Z,100190.72
2018-08-20T11:00:15.956Z,100190.66
2018-08-20T11:02:44.902Z,100191.53
2018-08-20T11:05:18.190Z,100193.02
2018-08-20T11:07:47.251Z,100203.67
2018-08-20T11:10:17.403Z,100194.17
2018-08-20T11:12:46.362Z,100196.32
2018-08-20T11:15:15.350Z,100195.77
2018-08-20T11:17:44.306Z,100195.00
2018-08-20T11:20:15.744Z,100190.50
2018-08-20T11:22:44.909Z,100192.47
2018-08-20T11:25:14.326Z,100199.48
2018-08-20T11:27:43.358Z,100196.09
2018-08-20T11:30:13.636Z,100188.83
2018-08-20T11:32:42.632Z,100184.17
2018-08-20T11:35:12.204Z,100184.55
2018-08-20T11:37:41.872Z,100195.86
2018-08-20T11:40:10.888Z,100194.14
2018-08-20T11:42:39.904Z,100194.39
2018-08-20T11:45:10.862Z,100197.47
2018-08-20T11:47:39.845Z,100195.73
2018-08-20T11:50:08.966Z,100177.91
2018-08-20T11:52:38.532Z,100172.52
2018-08-20T11:55:07.621Z,100176.94
2018-08-20T11:57:36.634Z,100174.64
2018-08-20T12:00:07.913Z,100186.50
2018-08-20T12:02:36.885Z,100194.35
2018-08-20T12:05:08.019Z,100186.78
2018-08-20T12:07:37.107Z,100184.80
2018-08-20T12:10:07.918Z,100185.89
2018-08-20T12:12:37.742Z,100199.47
2018-08-20T12:15:08.107Z,100192.84
2018-08-20T12:17:37.098Z,100189.61
2018-08-20T12:20:06.788Z,100191.01
2018-08-20T12:22:35.892Z,100189.26
2018-08-20T12:25:05.438Z,100186.00
2018-08-20T12:27:34.585Z,100175.74
2018-08-20T12:30:03.520Z,100181.97
2018-08-20T12:32:32.506Z,100185.53
2018-08-20T12:35:01.468Z,100197.78
2018-08-20T12:37:30.517Z,100203.91
2018-08-20T12:39:59.548Z,100191.02
2018-08-20T12:42:28.381Z,100202.55
2018-08-20T12:44:57.924Z,100203.97
2018-08-20T12:47:27.435Z,100200.70
2018-08-20T12:49:56.428Z,100206.44
2018-08-20T12:52:25.819Z,100206.78
2018-08-20T12:54:54.726Z,100202.43
2018-08-20T12:57:23.676Z,100199.52
2018-08-20T12:59:54.488Z,100186.88
2018-08-20T13:02:23.433Z,100195.93
2018-08-20T13:04:52.709Z,100194.14
2018-08-20T13:07:21.871Z,100189.95
2018-08-20T13:09:50.802Z,100189.11
2018-08-20T13:12:19.756Z,100184.91
2018-08-20T13:14:48.696Z,100180.08
2018-08-20T13:17:18.400Z,100172.14
2018-08-20T13:19:47.391Z,100169.27
2018-08-20T13:22:16.552Z,100175.61
2018-08-20T13:24:45.480Z,100173.98
2018-08-20T13:27:14.416Z,100173.87
2018-08-20T13:29:43.361Z,100179.31
2018-08-20T13:32:12.306Z,100179.04
2018-08-20T13:34:41.254Z,100179.30
2018-08-20T13:37:10.262Z,100189.28
2018-08-20T13:39:39.190Z,100188.46
2018-08-20T13:42:08.183Z,100185.77
2018-08-20T13:44:37.133Z,100186.35
2018-08-20T13:47:06.346Z,100182.58
2018-08-20T13:49:35.413Z,100190.52
2018-08-20T13:52:04.353Z,100174.00
2018-08-20T13:54:33.369Z,100184.94
2018-08-20T13:57:02.304Z,100178.26
2018-08-20T13:59:31.224Z,100179.59
2018-08-20T14:02:04.915Z,100183.44
2018-08-20T14:04:34.077Z,100179.39
2018-08-20T14:07:03.005Z,100172.55
2018-08-20T14:09:31.946Z,100169.55
2018-08-20T14:12:00.906Z,100163.50
2018-08-20T14:14:29.860Z,100145.87
2018-08-20T14:16:58.856Z,100154.79
2018-08-20T14:19:27.831Z,100156.69
2018-08-20T14:21:56.808Z,100159.06
2018-08-20T14:24:25.856Z,100158.56
2018-08-20T14:26:54.805Z,100152.81
2018-08-20T14:29:23.764Z,100154.12
2018-08-20T14:31:53.423Z,100151.69
2018-08-20T14:34:22.341Z,100144.73
2018-08-20T14:36:51.343Z,100146.55
2018-08-20T14:39:21.021Z,100154.66
2018-08-20T14:41:50.744Z,100145.02
2018-08-20T14:44:19.703Z,100151.22
2018-08-20T14:46:48.692Z,100145.49
2018-08-20T14:49:17.691Z,100156.81
2018-08-20T14:51:47.361Z,100155.92
2018-08-20T14:54:18.705Z,100156.15
2018-08-20T14:56:47.843Z,100151.30
2018-08-20T14:59:16.818Z,100155.76
2018-08-20T15:01:46.461Z,100155.83
2018-08-20T15:04:15.493Z,100158.27
2018-08-20T15:07:07.511Z,100157.62
2018-08-20T15:09:36.689Z,100164.39
2018-08-20T15:12:05.772Z,100155.78
2018-08-20T15:14:34.765Z,100149.06
2018-08-20T15:17:03.749Z,100156.47
2018-08-20T15:19:32.679Z,100147.10
2018-08-20T15:22:02.872Z,100159.41
2018-08-20T15:24:31.827Z,100153.45
2018-08-20T15:27:00.931Z,100155.87
2018-08-20T15:29:29.972Z,100163.56
2018-08-20T15:31:59.575Z,100158.67
2018-08-20T15:34:28.521Z,100155.12
2018-08-20T15:36:57.456Z,100159.08
2018-08-20T15:39:40.014Z,100158.05
2018-08-20T15:42:08.859Z,100154.52
2018-08-20T15:44:37.783Z,100164.19
2018-08-20T15:47:06.716Z,100164.61
2018-08-20T15:49:35.654Z,100166.77
2018-08-20T15:52:04.584Z,100170.91
2018-08-20T15:54:33.590Z,100169.52
2018-08-20T15:57:02.539Z,100170.13
2018-08-20T15:59:31.509Z,100167.95
2018-08-20T16:02:00.503Z,100180.55
2018-08-20T16:04:29.504Z,100181.52
2018-08-20T16:06:58.473Z,100182.11
2018-08-20T16:09:27.437Z,100180.87
2018-08-20T16:11:57.544Z,100180.64
2018-08-20T16:14:32.599Z,100174.53
2018-08-20T16:17:01.519Z,100182.75
2018-08-20T16:19:30.432Z,100178.57
2018-08-20T16:21:59.431Z,100178.38
2018-08-20T16:24:28.370Z,100175.52
2018-08-20T16:26:57.300Z,100175.30
2018-08-20T16:29:26.239Z,100180.42
2018-08-20T16:31:55.168Z,100184.73
2018-08-20T16:34:24.117Z,100182.80
2018-08-20T16:36:53.028Z,100185.36
2018-08-20T16:39:22.025Z,100183.98
2018-08-20T16:41:50.933Z,100181.08
2018-08-20T16:44:19.868Z,100180.11
2018-08-20T16:46:48.773Z,100187.52
2018-08-20T16:49:17.691Z,100186.27
2018-08-20T16:51:46.684Z,100186.63
2018-08-20T16:54:15.672Z,100189.16
2018-08-20T16:56:44.595Z,100186.73
2018-08-20T16:59:13.565Z,100189.03
2018-08-20T17:01:42.507Z,100194.57
2018-08-20T17:04:29.878Z,100191.65
2018-08-20T17:07:00.574Z,100184.59
2018-08-20T17:09:29.860Z,100187.66
2018-08-20T17:11:58.876Z,100190.55
2018-08-20T17:14:27.790Z,100181.94
2018-08-20T17:16:56.715Z,100193.52
2018-08-20T17:19:25.626Z,100196.41
2018-08-20T17:21:54.570Z,100198.52
2018-08-20T17:24:29.023Z,100203.00
2018-08-20T17:26:59.398Z,100201.16
2018-08-20T17:29:28.371Z,100198.61
2018-08-20T17:31:57.327Z,100201.70
2018-08-20T17:34:26.264Z,100205.48
2018-08-20T17:36:55.193Z,100203.44
2018-08-20T17:39:24.353Z,100204.75
2018-08-20T17:41:53.491Z,100204.38
2018-08-20T17:44:23.632Z,100213.52
2018-08-20T17:46:52.583Z,100213.21
2018-08-20T17:49:26.891Z,100222.95
2018-08-20T17:51:55.812Z,100220.89
2018-08-20T17:54:26.444Z,100228.52
2018-08-20T17:56:55.377Z,100233.77
2018-08-20T17:59:24.320Z,100242.59
2018-08-20T18:01:53.291Z,100241.75
2018-08-20T18:04:22.269Z,100236.55
2018-08-20T18:06:54.752Z,100239.61
2018-08-20T18:09:23.704Z,100239.25
2018-08-20T18:11:53.891Z,100239.03
2018-08-20T18:14:24.236Z,100239.20
2018-08-20T18:16:53.146Z,100243.37
2018-08-20T18:19:22.151Z,100251.36
2018-08-20T18:21:51.070Z,100252.02
2018-08-20T18:24:21.204Z,100252.28
2018-08-20T18:26:53.686Z,100259.72
2018-08-20T18:29:22.627Z,100258.69
2018-08-20T18:31:56.763Z,100257.60
2018-08-20T18:34:26.818Z,100253.43
2018-08-20T18:36:55.770Z,100254.67
2018-08-20T18:39:24.701Z,100258.13
2018-08-20T18:42:03.619Z,100254.80
2018-08-20T18:44:32.613Z,100268.23
2018-08-20T18:47:01.635Z,100268.78
2018-08-20T18:49:30.633Z,100261.95
2018-08-20T18:52:06.376Z,100268.77
2018-08-20T18:54:37.393Z,100269.67
2018-08-20T18:57:06.688Z,100269.72
2018-08-20T18:59:37.074Z,100278.67
2018-08-20T19:02:07.127Z,100273.86
2018-08-20T19:04:41.488Z,100272.95
2018-08-20T19:07:12.704Z,100281.23
2018-08-20T19:09:46.066Z,100279.16
2018-08-20T19:12:15.075Z,100281.98
2018-08-20T19:14:44.060Z,100274.44
2018-08-20T19:17:18.333Z,100277.23
2018-08-20T19:19:49.418Z,100275.68
2018-08-20T19:22:23.731Z,100279.93
2018-08-20T19:24:52.657Z,100281.01
2018-08-20T19:27:21.588Z,100285.84
2018-08-20T19:29:50.534Z,100286.62
2018-08-20T19:32:19.431Z,100284.13
2018-08-20T19:34:49.316Z,100291.19
2018-08-20T19:37:18.284Z,100283.48
2018-08-20T19:39:47.204Z,100294.55
2018-08-20T19:42:21.573Z,100287.63
2018-08-20T19:44:50.603Z,100292.98
2018-08-20T19:47:19.511Z,100289.80
2018-08-20T19:49:48.425Z,100292.30
2018-08-20T19:52:17.395Z,100295.22
2018-08-20T19:54:48.229Z,100298.05
2018-08-20T19:57:17.151Z,100300.82
2018-08-20T19:59:46.099Z,100302.78
2018-08-20T20:02:15.077Z,100300.51
2018-08-20T20:04:43.997Z,100300.16
2018-08-20T20:07:12.932Z,100304.89
2018-08-20T20:09:41.979Z,100301.44
2018-08-20T20:12:10.891Z,100305.14
2018-08-20T20:14:44.017Z,100301.05
2018-08-20T20:17:12.951Z,100296.66
2018-08-20T20:19:41.869Z,100300.59
2018-08-20T20:22:15.336Z,100301.72
2018-08-20T20:24:44.262Z,100300.00
2018-08-20T20:27:13.224Z,100305.82
2018-08-20T20:29:42.194Z,100308.78
2018-08-20T20:32:11.167Z,100309.42
2018-08-20T20:34:40.245Z,100308.05
2018-08-20T20:37:09.204Z,100309.13
2018-08-20T20:39:43.514Z,100313.17
2018-08-20T20:42:13.656Z,100314.84
2018-08-20T20:44:42.580Z,100315.19
2018-08-20T20:47:11.576Z,100316.27
2018-08-20T20:49:40.446Z,100322.37
2018-08-20T20:52:09.412Z,100321.01
2018-08-20T20:54:38.371Z,100324.13
2018-08-20T20:57:07.396Z,100324.55
2018-08-20T20:59:36.384Z,100322.46
2018-08-20T21:02:05.322Z,100318.91
2018-08-20T21:04:35.392Z,100320.37
2018-08-20T21:07:04.642Z,100325.55
2018-08-20T21:09:39.022Z,100327.84
2018-08-20T21:12:07.989Z,100331.45
2018-08-20T21:14:36.984Z,100326.97
2018-08-20T21:17:05.933Z,100333.39
2018-08-20T21:19:35.788Z,100336.25
2018-08-20T21:22:06.591Z,100337.36
2018-08-20T21:24:35.648Z,100339.09
2018-08-20T21:27:11.393Z,100340.23
2018-08-20T21:29:40.333Z,100342.84
2018-08-20T21:32:09.300Z,100337.08
2018-08-20T21:34:41.033Z,100339.22
2018-08-20T21:37:10.531Z,100335.37
2018-08-20T21:39:39.916Z,100333.13
2018-08-20T21:42:08.949Z,100336.16
2018-08-20T21:44:37.976Z,100338.02
2018-08-20T21:47:28.117Z,100343.97
2018-08-20T21:49:57.093Z,100342.60
2018-08-20T21:52:26.085Z,100342.89
2018-08-20T21:54:55.091Z,100344.77
2018-08-20T21:57:24.082Z,100351.09
2018-08-20T22:00:02.570Z,100358.20
2018-08-20T22:02:32.503Z,100356.97
2018-08-20T22:05:02.521Z,100358.30
2018-08-20T22:07:31.489Z,100360.28
2018-08-20T22:10:00.510Z,100358.73
2018-08-20T22:12:29.436Z,100359.94
2018-08-20T22:14:58.326Z,100358.48
2018-08-20T22:17:29.347Z,100360.59
2018-08-20T22:19:58.618Z,100354.28
2018-08-20T22:22:28.528Z,100359.98
2018-08-20T22:25:00.013Z,100356.02
2018-08-20T22:27:29.952Z,100369.83
2018-08-20T22:30:01.890Z,100364.43
2018-08-20T22:32:32.015Z,100368.46
2018-08-20T22:35:01.009Z,100373.34
2018-08-20T22:37:29.925Z,100365.73
2018-08-20T22:40:04.908Z,100370.59
2018-08-20T22:42:52.449Z,100367.99
2018-08-20T22:45:21.855Z,100374.10
2018-08-20T22:47:51.422Z,100378.92
2018-08-20T22:50:20.462Z,100383.84
2018-08-20T22:52:50.605Z,100383.16
2018-08-20T22:55:20.718Z,100385.65
2018-08-20T22:58:01.210Z,100381.78
2018-08-20T23:00:30.156Z,100383.22
2018-08-20T23:03:01.972Z,100379.40
2018-08-20T23:05:31.928Z,100380.70
2018-08-20T23:08:07.111Z,100383.63
2018-08-20T23:10:39.452Z,100385.06
2018-08-20T23:13:08.507Z,100385.34
2018-08-20T23:15:37.415Z,100382.16
2018-08-20T23:18:06.325Z,100385.17
2018-08-20T23:20:35.256Z,100391.17
2018-08-20T23:23:04.280Z,100398.25
2018-08-20T23:25:33.184Z,100396.78
2018-08-20T23:28:02.541Z,100393.36
2018-08-20T23:30:31.887Z,100399.06
2018-08-20T23:44:27.302Z,100412.09
2018-08-20T23:46:56.299Z,100410.86
2018-08-20T23:49:25.238Z,100410.77
2018-08-20T23:51:54.708Z,100404.83
2018-08-20T23:54:23.642Z,100409.67
2018-08-20T23:56:52.608Z,100412.09
2018-08-20T23:59:21.553Z,100411.73
